createdAt,value
2023-01-19T00:01:13.210Z,99.90
2023-01-19T00:05:16.863Z,99.90
2023-01-19T00:09:22.397Z,99.90
2023-01-19T00:13:26.251Z,99.90
2023-01-19T00:17:31.143Z,99.90
2023-01-19T00:21:35.016Z,99.90
2023-01-19T00:25:42.770Z,99.90
2023-01-19T00:29:46.785Z,99.90
2023-01-19T00:33:53.008Z,99.90
2023-01-19T00:37:57.957Z,99.90
2023-01-19T00:42:19.103Z,99.90
2023-01-19T00:46:27.325Z,99.90
2023-01-19T00:50:33.633Z,99.90
2023-01-19T00:54:37.451Z,99.90
2023-01-19T00:58:40.999Z,99.90
2023-01-19T01:02:45.808Z,99.90
2023-01-19T01:06:50.829Z,99.90
2023-01-19T01:10:54.607Z,99.90
2023-01-19T01:14:58.115Z,99.90
2023-01-19T01:19:01.866Z,99.90
2023-01-19T01:23:06.717Z,99.90
2023-01-19T01:27:10.408Z,99.90
2023-01-19T01:31:13.969Z,99.90
2023-01-19T01:35:18.103Z,99.90
2023-01-19T01:39:23.266Z,99.90
2023-01-19T01:43:44.734Z,99.90
2023-01-19T01:47:51.500Z,99.90
2023-01-19T01:51:56.263Z,99.90
2023-01-19T01:56:02.419Z,99.90
2023-01-19T02:00:07.715Z,99.90
2023-01-19T02:04:10.515Z,99.90
2023-01-19T02:08:36.915Z,99.90
2023-01-19T02:12:59.835Z,99.90
2023-01-19T02:17:03.301Z,99.90
2023-01-19T02:21:12.847Z,99.90
2023-01-19T02:25:19.360Z,99.90
2023-01-19T02:29:25.924Z,99.90
2023-01-19T02:33:29.619Z,99.90
2023-01-19T02:37:37.632Z,99.90
2023-01-19T02:41:47.288Z,99.90
2023-01-19T02:45:51.029Z,99.90
2023-01-19T02:49:57.905Z,99.90
2023-01-19T02:54:28.517Z,99.90
2023-01-19T02:58:39.633Z,99.90
2023-01-19T03:02:54.515Z,99.90
2023-01-19T03:07:06.097Z,99.90
2023-01-19T03:11:11.489Z,99.90
2023-01-19T03:15:20.917Z,99.90
2023-01-19T03:19:28.395Z,99.90
2023-01-19T03:23:34.677Z,99.90
2023-01-19T03:27:41.387Z,99.90
2023-01-19T03:31:49.095Z,99.90
2023-01-19T03:35:57.573Z,99.90
2023-01-19T03:40:01.386Z,99.90
2023-01-19T03:44:06.743Z,99.90
2023-01-19T03:48:11.928Z,99.90
2023-01-19T03:52:15.190Z,99.90
2023-01-19T03:56:24.488Z,99.90
2023-01-19T04:00:27.844Z,99.90
2023-01-19T04:04:32.673Z,99.90
2023-01-19T04:08:36.024Z,99.90
2023-01-19T04:12:39.560Z,99.90
2023-01-19T04:16:42.927Z,99.90
2023-01-19T04:20:47.660Z,99.90
2023-01-19T04:24:51.076Z,99.90
2023-01-19T04:28:54.735Z,99.90
2023-01-19T04:33:00.854Z,99.90
2023-01-19T04:37:05.569Z,99.90
2023-01-19T04:41:09.008Z,99.90
2023-01-19T04:45:13.677Z,99.90
2023-01-19T04:49:17.059Z,99.90
2023-01-19T04:53:21.773Z,99.90
2023-01-19T04:57:25.288Z,99.90
2023-01-19T05:01:29.222Z,99.90
2023-01-19T05:05:33.218Z,99.90
2023-01-19T05:09:37.928Z,99.90
2023-01-19T05:13:42.333Z,99.90
2023-01-19T05:17:45.994Z,99.90
2023-01-19T05:21:49.345Z,99.90
2023-01-19T05:25:56.475Z,99.90
2023-01-19T05:29:59.787Z,99.90
2023-01-19T05:34:04.262Z,99.90
2023-01-19T05:38:08.187Z,99.90
2023-01-19T05:42:12.963Z,99.90
2023-01-19T05:46:16.691Z,99.90
2023-01-19T05:50:20.309Z,99.90
2023-01-19T05:54:23.938Z,99.90
2023-01-19T05:58:28.868Z,99.90
2023-01-19T06:02:32.333Z,99.90
2023-01-19T06:06:36.793Z,99.90
2023-01-19T06:10:40.717Z,99.90
2023-01-19T06:14:45.527Z,99.90
2023-01-19T06:18:48.789Z,99.90
2023-01-19T06:22:52.159Z,99.90
2023-01-19T06:26:55.589Z,99.90
2023-01-19T06:31:00.282Z,99.90
2023-01-19T06:35:03.651Z,99.90
2023-01-19T06:39:07.111Z,99.90
2023-01-19T06:43:11.148Z,99.90
2023-01-19T06:47:16.372Z,99.90
2023-01-19T06:51:20.018Z,99.90
2023-01-19T06:55:23.331Z,99.90
2023-01-19T06:59:28.578Z,99.90
2023-01-19T07:03:33.887Z,99.90
2023-01-19T07:07:39.721Z,99.90
2023-01-19T07:11:43.214Z,99.90
2023-01-19T07:15:46.578Z,99.90
2023-01-19T07:19:51.390Z,99.90
2023-01-19T07:23:55.157Z,99.90
2023-01-19T07:27:59.434Z,99.90
2023-01-19T07:32:02.984Z,99.90
2023-01-19T07:36:09.070Z,99.90
2023-01-19T07:40:13.600Z,99.90
2023-01-19T07:44:17.084Z,99.90
2023-01-19T07:48:21.757Z,99.90
2023-01-19T07:52:26.833Z,99.90
2023-01-19T07:56:32.809Z,99.90
2023-01-19T08:00:38.542Z,99.90
2023-01-19T08:04:42.332Z,99.90
2023-01-19T08:08:47.255Z,99.90
2023-01-19T08:12:50.917Z,99.90
2023-01-19T08:16:54.486Z,99.90
2023-01-19T08:21:00.127Z,99.90
2023-01-19T08:25:06.005Z,99.90
2023-01-19T08:29:10.920Z,99.90
2023-01-19T08:33:14.934Z,99.90
2023-01-19T08:37:18.457Z,99.90
2023-01-19T08:41:23.625Z,99.90
2023-01-19T08:45:27.249Z,99.90
2023-01-19T08:49:30.861Z,99.90
2023-01-19T08:53:38.247Z,99.90
2023-01-19T08:57:43.337Z,99.90
2023-01-19T09:01:47.343Z,99.90
2023-01-19T09:05:51.339Z,99.90
2023-01-19T09:09:54.935Z,99.90
2023-01-19T09:14:00.036Z,99.90
2023-01-19T09:18:03.641Z,99.00
2023-01-19T09:22:07.455Z,99.20
2023-01-19T09:26:12.277Z,99.90
2023-01-19T09:30:19.342Z,99.90
2023-01-19T09:34:23.335Z,99.20
2023-01-19T09:38:27.257Z,98.50
2023-01-19T09:42:41.020Z,99.00
2023-01-19T09:46:46.458Z,97.90
2023-01-19T09:50:51.099Z,96.40
2023-01-19T09:54:57.251Z,97.00
2023-01-19T09:59:04.495Z,97.10
2023-01-19T10:03:16.429Z,95.60
2023-01-19T10:07:34.347Z,96.10
2023-01-19T10:11:52.725Z,96.00
2023-01-19T10:16:05.479Z,96.60
2023-01-19T10:20:19.269Z,97.60
2023-01-19T10:24:28.970Z,96.50
2023-01-19T10:28:33.458Z,96.60
2023-01-19T10:32:38.201Z,96.10
2023-01-19T10:36:43.134Z,96.00
2023-01-19T10:40:55.448Z,97.20
2023-01-19T10:44:59.446Z,96.70
2023-01-19T10:49:04.626Z,96.90
2023-01-19T10:53:21.978Z,96.10
2023-01-19T10:57:30.807Z,97.30
2023-01-19T11:01:40.044Z,96.40
2023-01-19T11:05:44.139Z,96.60
2023-01-19T11:09:49.951Z,97.30
2023-01-19T11:14:12.030Z,97.30
2023-01-19T11:18:26.397Z,97.30
2023-01-19T11:22:33.187Z,97.20
2023-01-19T11:26:43.314Z,98.50
2023-01-19T11:30:56.916Z,96.90
2023-01-19T11:35:04.557Z,97.00
2023-01-19T11:39:23.797Z,97.30
2023-01-19T11:43:43.609Z,97.30
2023-01-19T11:47:52.721Z,98.50
2023-01-19T11:52:03.842Z,97.30
2023-01-19T11:56:11.621Z,97.70
2023-01-19T12:00:26.414Z,98.60
2023-01-19T12:04:34.312Z,99.30
2023-01-19T12:08:42.420Z,99.90
2023-01-19T12:12:46.588Z,99.90
2023-01-19T12:16:53.310Z,99.90
2023-01-19T12:20:59.025Z,99.90
2023-01-19T12:25:07.413Z,99.90
2023-01-19T12:29:14.580Z,99.90
2023-01-19T12:33:40.609Z,99.90
2023-01-19T12:37:45.511Z,99.90
2023-01-19T12:41:51.697Z,99.90
2023-01-19T12:45:58.067Z,99.90
2023-01-19T12:50:09.568Z,99.90
2023-01-19T12:54:25.510Z,99.90
2023-01-19T12:58:31.226Z,99.90
2023-01-19T13:02:53.995Z,99.90
2023-01-19T13:07:13.871Z,99.90
2023-01-19T13:11:21.034Z,99.90
2023-01-19T13:15:36.031Z,99.90
2023-01-19T13:19:48.794Z,99.30
2023-01-19T13:23:58.746Z,99.60
2023-01-19T13:28:04.107Z,98.60
2023-01-19T13:32:16.335Z,99.90
2023-01-19T13:36:31.374Z,98.80
2023-01-19T13:40:40.146Z,98.00
2023-01-19T13:44:52.481Z,97.80
2023-01-19T13:48:59.141Z,99.80
2023-01-19T13:53:04.824Z,97.30
2023-01-19T13:57:24.288Z,98.50
2023-01-19T14:01:29.556Z,98.90
2023-01-19T14:05:35.542Z,99.90
2023-01-19T14:09:40.040Z,99.90
2023-01-19T14:13:50.198Z,99.20
2023-01-19T14:18:13.191Z,99.20
2023-01-19T14:22:16.846Z,98.60
2023-01-19T14:26:46.805Z,99.90
2023-01-19T14:30:59.725Z,99.90
2023-01-19T14:35:25.792Z,99.90
2023-01-19T14:39:31.340Z,99.90
2023-01-19T14:43:35.111Z,99.90
2023-01-19T14:47:42.812Z,99.90
2023-01-19T14:51:48.278Z,99.90
2023-01-19T14:55:55.715Z,99.90
2023-01-19T14:59:59.647Z,99.90
2023-01-19T15:04:04.836Z,99.90
2023-01-19T15:08:10.205Z,99.90
2023-01-19T15:12:17.554Z,99.90
2023-01-19T15:16:21.648Z,99.90
2023-01-19T15:20:26.593Z,99.90
2023-01-19T15:24:30.243Z,99.90
2023-01-19T15:28:34.587Z,99.90
2023-01-19T15:32:43.879Z,99.90
2023-01-19T15:36:48.997Z,99.90
2023-01-19T15:40:52.773Z,99.90
2023-01-19T15:44:56.274Z,99.90
2023-01-19T15:48:59.988Z,99.90
2023-01-19T15:53:05.279Z,99.90
2023-01-19T15:57:09.721Z,99.90
2023-01-19T16:01:15.158Z,99.90
2023-01-19T16:05:18.992Z,99.90
2023-01-19T16:09:24.176Z,99.90
2023-01-19T16:13:30.145Z,99.90
2023-01-19T16:17:33.953Z,99.90
2023-01-19T16:21:37.487Z,99.90
2023-01-19T16:25:42.671Z,99.90
2023-01-19T16:29:46.386Z,99.90
2023-01-19T16:33:51.416Z,99.90
2023-01-19T16:37:55.107Z,99.90
2023-01-19T16:42:00.321Z,99.90
2023-01-19T16:46:04.786Z,99.90
2023-01-19T16:50:11.739Z,99.90
2023-01-19T16:54:17.431Z,99.90
2023-01-19T16:58:23.045Z,99.90
2023-01-19T17:02:27.886Z,99.90
2023-01-19T17:06:32.313Z,99.90
2023-01-19T17:10:40.500Z,99.90
2023-01-19T17:14:47.989Z,99.90
2023-01-19T17:18:55.151Z,99.90
2023-01-19T17:22:59.629Z,99.90
2023-01-19T17:27:03.994Z,99.90
2023-01-19T17:31:11.056Z,99.90
2023-01-19T17:35:17.500Z,99.90
2023-01-19T17:39:23.399Z,99.90
2023-01-19T17:43:33.087Z,99.90
2023-01-19T17:47:41.462Z,99.90
2023-01-19T17:51:45.999Z,99.90
2023-01-19T17:55:53.798Z,99.90
2023-01-19T17:59:59.704Z,99.90
2023-01-19T18:04:06.111Z,99.90
2023-01-19T18:08:14.195Z,99.90
2023-01-19T18:12:20.447Z,99.90
2023-01-19T18:16:31.426Z,99.90
2023-01-19T18:20:40.629Z,99.90
2023-01-19T18:24:46.495Z,99.90
2023-01-19T18:28:52.563Z,99.90
2023-01-19T18:33:00.912Z,99.90
2023-01-19T18:37:10.036Z,99.90
2023-01-19T18:41:18.093Z,99.90
2023-01-19T18:45:24.402Z,99.90
2023-01-19T18:49:29.182Z,99.90
2023-01-19T18:53:36.163Z,99.90
2023-01-19T18:57:42.293Z,99.90
2023-01-19T19:01:47.279Z,99.90
2023-01-19T19:05:53.975Z,99.90
2023-01-19T19:10:00.315Z,99.90
2023-01-19T19:14:09.233Z,99.90
2023-01-19T19:18:16.552Z,99.90
2023-01-19T19:22:21.055Z,99.90
2023-01-19T19:26:28.778Z,99.90
2023-01-19T19:30:36.208Z,99.90
2023-01-19T19:34:43.313Z,99.90
2023-01-19T19:38:49.131Z,99.90
2023-01-19T19:42:58.687Z,99.90
2023-01-19T19:47:04.423Z,99.90
2023-01-19T19:51:18.564Z,99.90
2023-01-19T19:55:26.042Z,99.90
2023-01-19T19:59:34.316Z,99.90
2023-01-19T20:03:40.327Z,99.90
2023-01-19T20:07:48.927Z,99.90
2023-01-19T20:11:56.458Z,99.90
2023-01-19T20:16:23.383Z,99.90
2023-01-19T20:20:36.065Z,99.90
2023-01-19T20:24:42.814Z,99.90
2023-01-19T20:28:49.740Z,99.90
2023-01-19T20:32:56.678Z,99.90
2023-01-19T20:37:05.721Z,99.90
2023-01-19T20:41:12.008Z,99.90
2023-01-19T20:45:20.773Z,99.90
2023-01-19T20:49:27.814Z,99.90
2023-01-19T20:53:33.757Z,99.90
2023-01-19T20:57:38.274Z,99.90
2023-01-19T21:01:43.899Z,99.90
2023-01-19T21:05:50.104Z,99.90
2023-01-19T21:09:56.577Z,99.90
2023-01-19T21:14:01.494Z,99.90
2023-01-19T21:18:05.849Z,99.90
2023-01-19T21:22:11.286Z,99.90
2023-01-19T21:26:15.911Z,99.90
2023-01-19T21:30:20.812Z,99.90
2023-01-19T21:34:25.716Z,99.90
2023-01-19T21:38:32.026Z,99.90
2023-01-19T21:42:37.104Z,99.90
2023-01-19T21:46:42.010Z,99.90
2023-01-19T21:50:46.566Z,99.90
2023-01-19T21:54:51.623Z,99.90
2023-01-19T21:58:56.149Z,99.90
2023-01-19T22:03:04.023Z,99.90
2023-01-19T22:07:08.335Z,99.90
2023-01-19T22:11:15.982Z,99.90
2023-01-19T22:15:19.800Z,99.90
2023-01-19T22:19:23.694Z,99.90
2023-01-19T22:23:27.182Z,99.90
2023-01-19T22:27:33.513Z,99.90
2023-01-19T22:31:37.123Z,99.90
2023-01-19T22:35:40.835Z,99.90
2023-01-19T22:39:44.594Z,99.90
2023-01-19T22:43:50.388Z,99.90
2023-01-19T22:47:54.155Z,99.90
2023-01-19T22:51:57.697Z,99.90
2023-01-19T22:56:01.448Z,99.90
2023-01-19T23:00:09.019Z,99.90
2023-01-19T23:04:14.851Z,99.90
2023-01-19T23:08:18.386Z,99.90
2023-01-19T23:12:22.106Z,99.90
2023-01-19T23:16:27.409Z,99.90
2023-01-19T23:20:33.073Z,99.90
2023-01-19T23:24:36.385Z,99.90
2023-01-19T23:28:40.633Z,99.90
2023-01-19T23:32:49.793Z,99.90
2023-01-19T23:36:53.090Z,99.90
2023-01-19T23:40:58.729Z,99.90
2023-01-19T23:45:02.052Z,99.90
2023-01-19T23:49:06.715Z,99.90
2023-01-19T23:53:10.154Z,99.90
2023-01-19T23:57:13.498Z,99.90
